AFR194A LFPG-VOBL
Flight info
| Callsign | AFR194A |
|---|---|
| Flight time | N/A |
| Altitude | 37000 |
| Route | BUBLI DCT LUVAL DCT MIRGU DCT BEGAR DCT TRA DCT GAMSA DCT GEDSO DCT PODET DCT ZINPE/N0476F390 DCT NASSY DCT OKLOP DCT ETIDA DCT UDROS UN743 GAKSU UT310 SIN UN644 KARDE UL851 TBN UR317 REBLO DCT MATAL T916 SUBUT T923 ERLEV M11 RODAR A909 TUNEK B143 KRS A240 KESEK/N0485F410 A240 INRAK B449 DOLOS B475 NINOP B801 RANAH L750 ZB G202 HILAL/N0495F390 G202 RK P628 VIKIT/N0490F410 P628 NIKOT/N0494F400 A474 PRA/N0488F410 L518 HIA Q21 LURGI/N0491F400 Q21 TELUV TELUV7F |
| Aircraft | A359/H-SDE2E3GHIJ3J4J5LM1ORWXY/LB1D1 |
Departure
| Time | 2026-05-05 22:18 |
|---|---|
| Airport | Charles de Gaulle International Airport (LFPG) |
Arrival
| Time | N/A |
|---|---|
| Airport | Kempegowda International Airport Bengaluru (VOBL) |
| Time | Latitude | Longitude | Altitude | Speed | Heading |
|---|---|---|---|---|---|
| 2026-05-05 21:29 | 49.00143 | 2.57919 | 361 ft | 0 kts | 355° |
| 2026-05-05 22:03 | 49.00122 | 2.57923 | 363 ft | 4 kts | 354° |
| 2026-05-05 22:03 | 49.00096 | 2.57927 | 360 ft | 4 kts | 354° |
| 2026-05-05 22:03 | 49.00073 | 2.57928 | 360 ft | 4 kts | 33° |
| 2026-05-05 22:04 | 49.00067 | 2.57904 | 367 ft | 4 kts | 97° |
| 2026-05-05 22:04 | 49.00069 | 2.57866 | 363 ft | 1 kts | 85° |
| 2026-05-05 22:04 | 49.00068 | 2.57858 | 362 ft | 0 kts | 85° |
| 2026-05-05 22:07 | 49.00070 | 2.57902 | 360 ft | 6 kts | 86° |
| 2026-05-05 22:08 | 49.00073 | 2.57953 | 364 ft | 4 kts | 85° |
| 2026-05-05 22:08 | 49.00078 | 2.58037 | 367 ft | 12 kts | 86° |
| 2026-05-05 22:08 | 49.00086 | 2.58206 | 366 ft | 17 kts | 85° |
| 2026-05-05 22:08 | 49.00035 | 2.58316 | 360 ft | 10 kts | 167° |
| 2026-05-05 22:09 | 49.00017 | 2.58299 | 365 ft | 0 kts | 242° |
| 2026-05-05 22:09 | 49.00016 | 2.58295 | 369 ft | 3 kts | 245° |
| 2026-05-05 22:09 | 49.00009 | 2.58228 | 369 ft | 9 kts | 263° |
| 2026-05-05 22:09 | 49.00000 | 2.58103 | 368 ft | 13 kts | 263° |
| 2026-05-05 22:10 | 48.99992 | 2.57977 | 368 ft | 11 kts | 265° |
| 2026-05-05 22:10 | 48.99986 | 2.57866 | 368 ft | 10 kts | 265° |
| 2026-05-05 22:10 | 48.99981 | 2.57773 | 363 ft | 8 kts | 266° |
| 2026-05-05 22:10 | 48.99976 | 2.57673 | 369 ft | 11 kts | 265° |
| 2026-05-05 22:11 | 48.99969 | 2.57533 | 360 ft | 17 kts | 265° |
| 2026-05-05 22:11 | 48.99958 | 2.57310 | 365 ft | 23 kts | 265° |
| 2026-05-05 22:11 | 48.99945 | 2.57078 | 367 ft | 21 kts | 265° |
| 2026-05-05 22:11 | 48.99931 | 2.56843 | 364 ft | 21 kts | 265° |
| 2026-05-05 22:12 | 48.99919 | 2.56629 | 366 ft | 19 kts | 265° |
| 2026-05-05 22:12 | 48.99910 | 2.56437 | 368 ft | 17 kts | 265° |
| 2026-05-05 22:12 | 48.99901 | 2.56262 | 367 ft | 16 kts | 265° |
| 2026-05-05 22:12 | 48.99892 | 2.56097 | 362 ft | 15 kts | 259° |
| 2026-05-05 22:13 | 48.99828 | 2.56007 | 368 ft | 12 kts | 213° |
| 2026-05-05 22:13 | 48.99807 | 2.55914 | 369 ft | 9 kts | 250° |
| 2026-05-05 22:13 | 48.99781 | 2.55838 | 369 ft | 8 kts | 242° |
| 2026-05-05 22:13 | 48.99757 | 2.55746 | 366 ft | 10 kts | 257° |
| 2026-05-05 22:14 | 48.99748 | 2.55634 | 360 ft | 11 kts | 264° |
| 2026-05-05 22:14 | 48.99742 | 2.55522 | 366 ft | 10 kts | 266° |
| 2026-05-05 22:14 | 48.99731 | 2.55465 | 362 ft | 2 kts | 234° |
| 2026-05-05 22:14 | 48.99726 | 2.55457 | 367 ft | 0 kts | 224° |
| 2026-05-05 22:15 | 48.99725 | 2.55456 | 367 ft | 1 kts | 224° |
| 2026-05-05 22:15 | 48.99688 | 2.55447 | 368 ft | 10 kts | 168° |
| 2026-05-05 22:16 | 48.99609 | 2.55510 | 365 ft | 14 kts | 149° |
| 2026-05-05 22:16 | 48.99589 | 2.55617 | 363 ft | 0 kts | 85° |
| 2026-05-05 22:17 | 48.99596 | 2.55744 | 362 ft | 36 kts | 85° |
| 2026-05-05 22:17 | 48.99631 | 2.56444 | 370 ft | 95 kts | 84° |
| 2026-05-05 22:18 | 48.99703 | 2.57707 | 368 ft | 144 kts | 85° |
| 2026-05-05 22:18 | 48.99771 | 2.59448 | 572 ft | 171 kts | 90° |
| 2026-05-05 22:18 | 48.99652 | 2.61179 | 1307 ft | 158 kts | 88° |
| 2026-05-05 22:18 | 48.99702 | 2.62745 | 1915 ft | 151 kts | 74° |
| 2026-05-05 22:19 | 48.99906 | 2.64419 | 2170 ft | 169 kts | 73° |
| 2026-05-05 22:19 | 49.00106 | 2.66281 | 2457 ft | 187 kts | 79° |
| 2026-05-05 22:19 | 49.00248 | 2.68314 | 2761 ft | 204 kts | 82° |
| 2026-05-05 22:19 | 49.00380 | 2.70565 | 3081 ft | 223 kts | 83° |
| 2026-05-05 22:20 | 49.00519 | 2.73005 | 3438 ft | 240 kts | 83° |
| 2026-05-05 22:20 | 49.00649 | 2.75593 | 3952 ft | 249 kts | 84° |
| 2026-05-05 22:20 | 49.00606 | 2.78286 | 4458 ft | 259 kts | 96° |
| 2026-05-05 22:20 | 49.00342 | 2.81042 | 5042 ft | 265 kts | 99° |
| 2026-05-05 22:21 | 49.00053 | 2.83827 | 5738 ft | 268 kts | 98° |
| 2026-05-05 22:21 | 48.99766 | 2.86656 | 6438 ft | 271 kts | 99° |
| 2026-05-05 22:21 | 48.99480 | 2.89511 | 7087 ft | 275 kts | 99° |
| 2026-05-05 22:21 | 48.99190 | 2.92416 | 7776 ft | 279 kts | 99° |
| 2026-05-05 22:22 | 48.98849 | 2.95356 | 8493 ft | 282 kts | 105° |
| 2026-05-05 22:22 | 48.98159 | 2.98147 | 9250 ft | 284 kts | 116° |
| 2026-05-05 22:22 | 48.97328 | 3.00909 | 9928 ft | 288 kts | 116° |
| 2026-05-05 22:22 | 48.96479 | 3.03729 | 10366 ft | 302 kts | 116° |
| 2026-05-05 22:23 | 48.95583 | 3.06723 | 10747 ft | 318 kts | 116° |
| 2026-05-05 22:23 | 48.94652 | 3.09847 | 11128 ft | 332 kts | 116° |
| 2026-05-05 22:23 | 48.93674 | 3.13126 | 11537 ft | 346 kts | 116° |
| 2026-05-05 22:23 | 48.92667 | 3.16505 | 11921 ft | 359 kts | 116° |
| 2026-05-05 22:24 | 48.91620 | 3.20014 | 12366 ft | 370 kts | 116° |
| 2026-05-05 22:24 | 48.90550 | 3.23598 | 12939 ft | 376 kts | 116° |
| 2026-05-05 22:24 | 48.89455 | 3.27259 | 13587 ft | 381 kts | 116° |
| 2026-05-05 22:24 | 48.88358 | 3.30924 | 14139 ft | 385 kts | 116° |
| 2026-05-05 22:25 | 48.87238 | 3.34656 | 14714 ft | 389 kts | 116° |
| 2026-05-05 22:25 | 48.86111 | 3.38408 | 15290 ft | 392 kts | 116° |
| 2026-05-05 22:25 | 48.84968 | 3.42204 | 15894 ft | 396 kts | 116° |
| 2026-05-05 22:25 | 48.83815 | 3.46029 | 16470 ft | 399 kts | 116° |
| 2026-05-05 22:26 | 48.82656 | 3.49871 | 17042 ft | 402 kts | 116° |
| 2026-05-05 22:26 | 48.81554 | 3.53810 | 17582 ft | 408 kts | 110° |
| 2026-05-05 22:26 | 48.80938 | 3.58019 | 18167 ft | 413 kts | 98° |
| 2026-05-05 22:26 | 48.80650 | 3.62353 | 18732 ft | 415 kts | 96° |
| 2026-05-05 22:27 | 48.80382 | 3.66725 | 19318 ft | 417 kts | 97° |
| 2026-05-05 22:27 | 48.80103 | 3.71129 | 19930 ft | 419 kts | 97° |
| 2026-05-05 22:27 | 48.79819 | 3.75539 | 20533 ft | 421 kts | 97° |
| 2026-05-05 22:27 | 48.79529 | 3.79958 | 21120 ft | 422 kts | 97° |
| 2026-05-05 22:28 | 48.79235 | 3.84420 | 21710 ft | 424 kts | 97° |
| 2026-05-05 22:28 | 48.78936 | 3.88908 | 22307 ft | 427 kts | 97° |
| 2026-05-05 22:28 | 48.78635 | 3.93412 | 22869 ft | 429 kts | 97° |
| 2026-05-05 22:28 | 48.78330 | 3.97936 | 23424 ft | 432 kts | 97° |
| 2026-05-05 22:29 | 48.78022 | 4.02468 | 23894 ft | 434 kts | 97° |
| 2026-05-05 22:29 | 48.77710 | 4.07030 | 24386 ft | 436 kts | 97° |
| 2026-05-05 22:29 | 48.77234 | 4.11540 | 24846 ft | 438 kts | 104° |
| 2026-05-05 22:29 | 48.76283 | 4.15892 | 25268 ft | 439 kts | 114° |
| 2026-05-05 22:30 | 48.74816 | 4.20035 | 25707 ft | 441 kts | 123° |
| 2026-05-05 22:30 | 48.73123 | 4.23869 | 26157 ft | 444 kts | 125° |
| 2026-05-05 22:30 | 48.71335 | 4.27691 | 26579 ft | 447 kts | 126° |
| 2026-05-05 22:30 | 48.69497 | 4.31532 | 27017 ft | 449 kts | 126° |
| 2026-05-05 22:31 | 48.67660 | 4.35359 | 27450 ft | 452 kts | 126° |
| 2026-05-05 22:31 | 48.65813 | 4.39219 | 27906 ft | 454 kts | 126° |
| 2026-05-05 22:31 | 48.63966 | 4.43100 | 28340 ft | 456 kts | 126° |
| 2026-05-05 22:31 | 48.62109 | 4.47013 | 28714 ft | 459 kts | 126° |
| 2026-05-05 22:32 | 48.60247 | 4.50947 | 29103 ft | 462 kts | 126° |
| 2026-05-05 22:32 | 48.58368 | 4.54913 | 29479 ft | 464 kts | 126° |
| 2026-05-05 22:32 | 48.56483 | 4.58890 | 29829 ft | 467 kts | 126° |
| 2026-05-05 22:32 | 48.54603 | 4.62851 | 30118 ft | 470 kts | 126° |
| 2026-05-05 22:33 | 48.52671 | 4.66912 | 30352 ft | 473 kts | 126° |
| 2026-05-05 22:33 | 48.50759 | 4.70923 | 30643 ft | 475 kts | 126° |
| 2026-05-05 22:33 | 48.48837 | 4.74949 | 31023 ft | 474 kts | 126° |
| 2026-05-05 22:33 | 48.46909 | 4.78982 | 31347 ft | 475 kts | 127° |
| 2026-05-05 22:34 | 48.44968 | 4.83034 | 31664 ft | 475 kts | 127° |
| 2026-05-05 22:34 | 48.43040 | 4.87055 | 31983 ft | 475 kts | 127° |
| 2026-05-05 22:34 | 48.41094 | 4.91108 | 32318 ft | 476 kts | 127° |
| 2026-05-05 22:34 | 48.39152 | 4.95146 | 32630 ft | 476 kts | 127° |
| 2026-05-05 22:35 | 48.37227 | 4.99143 | 32967 ft | 476 kts | 127° |
| 2026-05-05 22:35 | 48.35267 | 5.03206 | 33276 ft | 476 kts | 127° |
| 2026-05-05 22:35 | 48.33962 | 5.05908 | 33462 ft | 476 kts | 127° |
| 2026-05-05 22:35 | 48.32018 | 5.09944 | 33758 ft | 476 kts | 127° |
| 2026-05-05 22:36 | 48.30260 | 5.14188 | 33885 ft | 481 kts | 119° |
| 2026-05-05 22:36 | 48.28897 | 5.18819 | 34024 ft | 486 kts | 111° |
| 2026-05-05 22:36 | 48.27922 | 5.23607 | 34221 ft | 488 kts | 108° |
| 2026-05-05 22:36 | 48.27026 | 5.28570 | 34478 ft | 488 kts | 107° |
| 2026-05-05 22:37 | 48.26174 | 5.33520 | 34718 ft | 488 kts | 106° |
| 2026-05-05 22:37 | 48.25348 | 5.38385 | 34920 ft | 488 kts | 106° |
| 2026-05-05 22:37 | 48.24500 | 5.43355 | 35137 ft | 488 kts | 107° |
| 2026-05-05 22:37 | 48.23645 | 5.48312 | 35349 ft | 488 kts | 107° |
| 2026-05-05 22:38 | 48.22796 | 5.53179 | 35527 ft | 488 kts | 107° |
| 2026-05-05 22:38 | 48.21929 | 5.58113 | 35727 ft | 489 kts | 107° |
| 2026-05-05 22:38 | 48.21056 | 5.63050 | 35872 ft | 490 kts | 107° |
| 2026-05-05 22:38 | 48.20168 | 5.68046 | 36053 ft | 490 kts | 107° |
| 2026-05-05 22:39 | 48.19300 | 5.72920 | 36251 ft | 490 kts | 107° |
| 2026-05-05 22:39 | 48.18417 | 5.77861 | 36429 ft | 490 kts | 107° |
| 2026-05-05 22:39 | 48.17525 | 5.82847 | 36585 ft | 491 kts | 107° |
| 2026-05-05 22:39 | 48.16646 | 5.87744 | 36759 ft | 491 kts | 107° |
| 2026-05-05 22:40 | 48.15757 | 5.92684 | 36842 ft | 493 kts | 108° |
| 2026-05-05 22:40 | 48.13944 | 6.02711 | 36851 ft | 498 kts | 108° |
| 2026-05-05 22:41 | 48.12142 | 6.12637 | 36854 ft | 497 kts | 108° |
| 2026-05-05 22:41 | 48.10318 | 6.22629 | 36850 ft | 496 kts | 108° |
| 2026-05-05 22:42 | 48.08491 | 6.32578 | 36871 ft | 496 kts | 108° |
| 2026-05-05 22:42 | 48.06655 | 6.42526 | 36859 ft | 496 kts | 108° |
| 2026-05-05 22:43 | 48.04808 | 6.52476 | 36860 ft | 496 kts | 108° |
| 2026-05-05 22:43 | 48.02955 | 6.62403 | 36865 ft | 496 kts | 108° |
| 2026-05-05 22:44 | 48.01382 | 6.72508 | 36866 ft | 499 kts | 103° |
| 2026-05-05 22:44 | 48.00139 | 6.82701 | 36853 ft | 499 kts | 103° |
| 2026-05-05 22:45 | 47.98924 | 6.92916 | 36865 ft | 499 kts | 103° |
| 2026-05-05 22:45 | 47.97702 | 7.03081 | 36861 ft | 499 kts | 103° |
| 2026-05-05 22:46 | 47.96454 | 7.13320 | 36861 ft | 499 kts | 103° |
| 2026-05-05 22:46 | 47.95203 | 7.23472 | 36844 ft | 499 kts | 103° |
| 2026-05-05 22:47 | 47.93932 | 7.33713 | 36860 ft | 501 kts | 103° |
| 2026-05-05 22:47 | 47.92661 | 7.43876 | 36867 ft | 501 kts | 104° |
| 2026-05-05 22:48 | 47.91375 | 7.54083 | 36868 ft | 501 kts | 104° |
| 2026-05-05 22:48 | 47.89413 | 7.63987 | 36856 ft | 496 kts | 113° |
| 2026-05-05 22:49 | 47.87008 | 7.73642 | 36881 ft | 498 kts | 114° |
| 2026-05-05 22:49 | 47.84539 | 7.83280 | 36887 ft | 498 kts | 114° |
| 2026-05-05 22:50 | 47.82089 | 7.92846 | 36892 ft | 498 kts | 114° |
| 2026-05-05 22:50 | 47.79611 | 8.02508 | 36892 ft | 498 kts | 114° |
| 2026-05-05 22:51 | 47.77130 | 8.12156 | 36902 ft | 498 kts | 114° |
| 2026-05-05 22:51 | 47.74652 | 8.21762 | 36900 ft | 498 kts | 114° |
| 2026-05-05 22:52 | 47.72163 | 8.31366 | 36900 ft | 498 kts | 115° |
| 2026-05-05 22:52 | 47.69663 | 8.40973 | 36900 ft | 498 kts | 115° |
| 2026-05-05 22:53 | 47.67251 | 8.50606 | 36908 ft | 501 kts | 112° |
| 2026-05-05 22:53 | 47.65071 | 8.60497 | 36907 ft | 502 kts | 111° |
| 2026-05-05 22:54 | 47.62914 | 8.70306 | 36907 ft | 502 kts | 112° |
| 2026-05-05 22:54 | 47.60695 | 8.80129 | 36906 ft | 502 kts | 112° |
| 2026-05-05 22:55 | 47.58456 | 8.89901 | 36906 ft | 502 kts | 113° |
| 2026-05-05 22:55 | 47.56192 | 8.99713 | 36903 ft | 503 kts | 113° |
| 2026-05-05 22:56 | 47.53924 | 9.09511 | 36901 ft | 503 kts | 113° |
| 2026-05-05 22:56 | 47.51654 | 9.19281 | 36901 ft | 503 kts | 113° |
| 2026-05-05 22:57 | 47.49367 | 9.29083 | 36899 ft | 503 kts | 113° |
| 2026-05-05 22:57 | 47.47070 | 9.38873 | 36910 ft | 503 kts | 113° |
| 2026-05-05 22:58 | 47.44785 | 9.48575 | 36908 ft | 503 kts | 113° |
| 2026-05-05 22:58 | 47.42461 | 9.58393 | 36913 ft | 503 kts | 113° |
| 2026-05-05 22:59 | 47.40457 | 9.68252 | 36913 ft | 508 kts | 107° |
| 2026-05-05 22:59 | 47.38986 | 9.78476 | 36910 ft | 508 kts | 105° |
| 2026-05-05 23:00 | 47.36865 | 9.93830 | 36912 ft | 510 kts | 106° |
| 2026-05-05 23:00 | 47.35440 | 10.04034 | 36907 ft | 511 kts | 106° |
| 2026-05-05 23:01 | 47.33986 | 10.14355 | 36905 ft | 511 kts | 106° |
| 2026-05-05 23:01 | 47.32533 | 10.24575 | 36908 ft | 511 kts | 106° |
| 2026-05-05 23:02 | 47.31056 | 10.34873 | 36905 ft | 511 kts | 106° |
| 2026-05-05 23:02 | 47.29576 | 10.45102 | 36896 ft | 511 kts | 107° |
| 2026-05-05 23:03 | 47.28098 | 10.55276 | 36909 ft | 511 kts | 107° |
| 2026-05-05 23:03 | 47.26597 | 10.65535 | 36908 ft | 510 kts | 107° |
| 2026-05-05 23:04 | 47.25092 | 10.75761 | 36904 ft | 510 kts | 107° |
| 2026-05-05 23:04 | 47.23592 | 10.85904 | 36905 ft | 511 kts | 107° |
| 2026-05-05 23:05 | 47.22073 | 10.96107 | 36912 ft | 510 kts | 107° |
| 2026-05-05 23:05 | 47.20545 | 11.06299 | 36919 ft | 510 kts | 107° |
| 2026-05-05 23:06 | 47.18994 | 11.16535 | 36923 ft | 509 kts | 107° |
| 2026-05-05 23:06 | 47.17447 | 11.26686 | 36912 ft | 510 kts | 107° |
| 2026-05-05 23:07 | 47.15896 | 11.36833 | 36918 ft | 511 kts | 105° |
| 2026-05-05 23:07 | 47.14428 | 11.47040 | 36924 ft | 511 kts | 105° |
| 2026-05-05 23:08 | 47.12922 | 11.57245 | 36934 ft | 511 kts | 105° |
| 2026-05-05 23:08 | 47.11349 | 11.67440 | 36933 ft | 511 kts | 105° |
| 2026-05-05 23:09 | 47.09748 | 11.77625 | 36948 ft | 511 kts | 106° |
| 2026-05-05 23:09 | 47.08132 | 11.87804 | 36950 ft | 511 kts | 106° |
| 2026-05-05 23:10 | 47.06137 | 11.97764 | 36947 ft | 507 kts | 112° |
| 2026-05-05 23:10 | 47.03800 | 12.07528 | 36955 ft | 507 kts | 112° |
| 2026-05-05 23:11 | 47.01519 | 12.17250 | 36955 ft | 507 kts | 112° |
| 2026-05-05 23:11 | 46.99289 | 12.27044 | 36987 ft | 507 kts | 111° |
| 2026-05-05 23:12 | 46.97440 | 12.35229 | 36990 ft | 507 kts | 111° |
| 2026-05-05 23:12 | 46.95221 | 12.45007 | 36996 ft | 506 kts | 111° |
| 2026-05-05 23:13 | 46.92984 | 12.54797 | 36990 ft | 506 kts | 111° |
| 2026-05-05 23:13 | 46.90744 | 12.64562 | 36982 ft | 507 kts | 111° |
| 2026-05-05 23:14 | 46.88494 | 12.74326 | 36978 ft | 506 kts | 111° |
| 2026-05-05 23:14 | 46.86232 | 12.84098 | 36977 ft | 506 kts | 112° |
| 2026-05-05 23:15 | 46.83961 | 12.93864 | 36972 ft | 507 kts | 112° |
| 2026-05-05 23:15 | 46.81706 | 13.03519 | 36984 ft | 507 kts | 112° |
| 2026-05-05 23:16 | 46.79414 | 13.13273 | 36952 ft | 507 kts | 112° |
| 2026-05-05 23:16 | 46.77112 | 13.23041 | 36986 ft | 506 kts | 112° |
| 2026-05-05 23:17 | 46.74828 | 13.32681 | 36978 ft | 505 kts | 112° |
| 2026-05-05 23:17 | 46.72516 | 13.42404 | 36983 ft | 505 kts | 112° |
| 2026-05-05 23:18 | 46.70199 | 13.52071 | 36951 ft | 505 kts | 112° |
| 2026-05-05 23:18 | 46.67870 | 13.61764 | 36982 ft | 509 kts | 112° |
| 2026-05-05 23:19 | 46.65524 | 13.71517 | 36962 ft | 511 kts | 112° |
| 2026-05-05 23:19 | 46.63169 | 13.81260 | 36951 ft | 510 kts | 112° |
| 2026-05-05 23:20 | 46.60804 | 13.90987 | 36952 ft | 511 kts | 112° |
| 2026-05-05 23:20 | 46.58414 | 14.00765 | 36958 ft | 514 kts | 112° |
| 2026-05-05 23:21 | 46.56013 | 14.10553 | 36943 ft | 515 kts | 112° |
| 2026-05-05 23:21 | 46.53598 | 14.20364 | 36939 ft | 515 kts | 112° |
| 2026-05-05 23:22 | 46.51186 | 14.30116 | 36938 ft | 514 kts | 111° |
| 2026-05-05 23:22 | 46.48766 | 14.39892 | 36947 ft | 514 kts | 111° |
| 2026-05-05 23:23 | 46.46330 | 14.49647 | 36945 ft | 514 kts | 111° |
| 2026-05-05 23:23 | 46.43884 | 14.59391 | 36959 ft | 517 kts | 112° |
| 2026-05-05 23:24 | 46.41410 | 14.69200 | 36962 ft | 517 kts | 111° |
| 2026-05-05 23:24 | 46.38953 | 14.78928 | 36967 ft | 516 kts | 111° |
| 2026-05-05 23:25 | 46.36475 | 14.88691 | 36967 ft | 516 kts | 111° |
| 2026-05-05 23:25 | 46.33990 | 14.98437 | 36936 ft | 516 kts | 111° |
| 2026-05-05 23:26 | 46.31506 | 15.08135 | 36948 ft | 513 kts | 111° |
| 2026-05-05 23:26 | 46.29015 | 15.17823 | 36949 ft | 512 kts | 111° |
| 2026-05-05 23:27 | 46.26525 | 15.27467 | 36952 ft | 512 kts | 111° |
| 2026-05-05 23:27 | 46.24035 | 15.37068 | 36943 ft | 512 kts | 111° |
| 2026-05-05 23:28 | 46.21530 | 15.46691 | 36948 ft | 511 kts | 111° |
| 2026-05-05 23:28 | 46.19024 | 15.56278 | 36949 ft | 511 kts | 111° |
| 2026-05-05 23:29 | 46.16507 | 15.65861 | 36945 ft | 511 kts | 111° |
| 2026-05-05 23:29 | 46.13920 | 15.75435 | 36946 ft | 511 kts | 111° |
| 2026-05-05 23:30 | 46.11328 | 15.84900 | 36944 ft | 511 kts | 112° |
| 2026-05-05 23:30 | 46.08704 | 15.94477 | 36947 ft | 511 kts | 112° |
| 2026-05-05 23:31 | 46.06106 | 16.03952 | 36947 ft | 511 kts | 112° |
| 2026-05-05 23:31 | 46.03487 | 16.13467 | 36950 ft | 513 kts | 111° |
| 2026-05-05 23:32 | 46.00844 | 16.23035 | 36946 ft | 515 kts | 111° |
| 2026-05-05 23:32 | 45.98184 | 16.32625 | 36944 ft | 515 kts | 111° |
| 2026-05-05 23:33 | 45.95523 | 16.42182 | 36951 ft | 515 kts | 111° |
| 2026-05-05 23:33 | 45.92848 | 16.51748 | 36957 ft | 516 kts | 111° |
| 2026-05-05 23:34 | 45.90177 | 16.61264 | 36954 ft | 516 kts | 111° |
| 2026-05-05 23:34 | 45.87473 | 16.70860 | 36954 ft | 516 kts | 111° |
| 2026-05-05 23:35 | 45.84790 | 16.80342 | 36954 ft | 517 kts | 111° |
| 2026-05-05 23:35 | 45.82058 | 16.89957 | 36953 ft | 518 kts | 111° |
| 2026-05-05 23:36 | 45.79344 | 16.99478 | 36951 ft | 518 kts | 111° |
| 2026-05-05 23:36 | 45.76603 | 17.09054 | 36955 ft | 518 kts | 112° |
| 2026-05-05 23:37 | 45.75237 | 17.13812 | 37082 ft | 517 kts | 112° |
| 2026-05-05 23:37 | 45.73853 | 17.18573 | 37431 ft | 512 kts | 112° |
| 2026-05-05 23:37 | 45.72435 | 17.23200 | 37750 ft | 509 kts | 114° |
| 2026-05-05 23:37 | 45.70973 | 17.27830 | 37978 ft | 507 kts | 114° |
| 2026-05-05 23:38 | 45.69519 | 17.32393 | 38185 ft | 505 kts | 114° |
| 2026-05-05 23:38 | 45.68064 | 17.36960 | 38365 ft | 504 kts | 114° |
| 2026-05-05 23:38 | 45.66616 | 17.41528 | 38557 ft | 503 kts | 114° |
| 2026-05-05 23:38 | 45.65175 | 17.46088 | 38685 ft | 502 kts | 114° |
| 2026-05-05 23:39 | 45.62327 | 17.55126 | 38815 ft | 503 kts | 114° |
| 2026-05-05 23:39 | 45.59448 | 17.64246 | 38961 ft | 504 kts | 114° |
| 2026-05-05 23:40 | 45.56547 | 17.73403 | 38966 ft | 507 kts | 114° |
| 2026-05-05 23:40 | 45.53643 | 17.82539 | 38969 ft | 508 kts | 114° |
| 2026-05-05 23:41 | 45.50714 | 17.91719 | 38967 ft | 509 kts | 114° |
| 2026-05-05 23:41 | 45.47762 | 18.00935 | 38965 ft | 509 kts | 114° |
| 2026-05-05 23:42 | 45.44835 | 18.10043 | 38966 ft | 509 kts | 114° |
| 2026-05-05 23:42 | 45.41682 | 18.19083 | 38966 ft | 508 kts | 118° |
| 2026-05-05 23:43 | 45.38326 | 18.27878 | 38969 ft | 507 kts | 118° |
| 2026-05-05 23:43 | 45.34977 | 18.36699 | 38969 ft | 507 kts | 118° |
| 2026-05-05 23:44 | 45.31656 | 18.45562 | 38971 ft | 507 kts | 117° |
| 2026-05-05 23:44 | 45.28344 | 18.54427 | 38971 ft | 507 kts | 117° |
| 2026-05-05 23:45 | 45.25041 | 18.63243 | 38971 ft | 507 kts | 117° |
| 2026-05-05 23:45 | 45.21721 | 18.72071 | 38977 ft | 507 kts | 117° |
| 2026-05-05 23:46 | 45.18382 | 18.80914 | 38971 ft | 506 kts | 117° |
| 2026-05-05 23:46 | 45.15071 | 18.89657 | 38975 ft | 506 kts | 117° |
| 2026-05-05 23:47 | 45.11733 | 18.98441 | 38982 ft | 506 kts | 117° |
| 2026-05-05 23:47 | 45.08391 | 19.07210 | 38982 ft | 506 kts | 117° |
| 2026-05-05 23:48 | 45.05039 | 19.15977 | 38982 ft | 506 kts | 117° |
| 2026-05-05 23:48 | 45.01675 | 19.24747 | 38982 ft | 506 kts | 118° |
| 2026-05-05 23:49 | 44.98306 | 19.33502 | 38987 ft | 506 kts | 118° |
| 2026-05-05 23:49 | 44.94964 | 19.42162 | 38991 ft | 506 kts | 118° |
| 2026-05-05 23:50 | 44.91585 | 19.50888 | 38987 ft | 507 kts | 118° |
| 2026-05-05 23:50 | 44.88193 | 19.59619 | 38988 ft | 507 kts | 118° |
| 2026-05-05 23:51 | 44.84795 | 19.68341 | 38985 ft | 507 kts | 118° |
| 2026-05-05 23:51 | 44.81395 | 19.77039 | 38987 ft | 507 kts | 118° |
| 2026-05-05 23:52 | 44.77976 | 19.85757 | 38987 ft | 508 kts | 118° |
| 2026-05-05 23:52 | 44.74540 | 19.94496 | 38990 ft | 508 kts | 118° |
| 2026-05-05 23:53 | 44.71149 | 20.03091 | 38992 ft | 508 kts | 118° |
| 2026-05-05 23:53 | 44.67711 | 20.11776 | 38996 ft | 508 kts | 118° |
| 2026-05-05 23:54 | 44.64840 | 20.19009 | 38993 ft | 509 kts | 118° |
| 2026-05-05 23:54 | 44.61390 | 20.27679 | 38995 ft | 509 kts | 118° |
| 2026-05-05 23:55 | 44.57923 | 20.36362 | 38996 ft | 509 kts | 118° |
| 2026-05-05 23:55 | 44.54447 | 20.45040 | 38999 ft | 511 kts | 118° |
| 2026-05-05 23:56 | 44.50952 | 20.53742 | 38998 ft | 512 kts | 118° |
| 2026-05-05 23:56 | 44.47447 | 20.62441 | 39004 ft | 512 kts | 118° |
| 2026-05-05 23:57 | 44.43970 | 20.71042 | 39002 ft | 512 kts | 118° |
| 2026-05-05 23:57 | 44.40452 | 20.79720 | 39005 ft | 513 kts | 118° |
| 2026-05-05 23:58 | 44.36919 | 20.88407 | 39006 ft | 513 kts | 118° |
| 2026-05-05 23:58 | 44.33401 | 20.97030 | 39011 ft | 513 kts | 118° |
| 2026-05-05 23:59 | 44.29846 | 21.05717 | 39008 ft | 514 kts | 118° |
| 2026-05-05 23:59 | 44.26295 | 21.14372 | 39007 ft | 515 kts | 118° |
| 2026-05-06 00:00 | 44.22726 | 21.23040 | 39014 ft | 515 kts | 118° |
| 2026-05-06 00:00 | 44.19144 | 21.31713 | 39020 ft | 515 kts | 118° |
| 2026-05-06 00:01 | 44.15490 | 21.40260 | 39015 ft | 516 kts | 120° |
| 2026-05-06 00:01 | 44.11627 | 21.48689 | 39018 ft | 515 kts | 121° |
| 2026-05-06 00:02 | 44.07764 | 21.57089 | 39016 ft | 516 kts | 121° |
| 2026-05-06 00:02 | 44.03924 | 21.65505 | 39019 ft | 517 kts | 120° |
| 2026-05-06 00:03 | 44.00084 | 21.73942 | 39018 ft | 517 kts | 120° |
| 2026-05-06 00:03 | 43.96231 | 21.82388 | 39017 ft | 517 kts | 120° |
| 2026-05-06 00:04 | 43.92370 | 21.90824 | 39024 ft | 517 kts | 121° |
| 2026-05-06 00:04 | 43.88528 | 21.99190 | 39022 ft | 517 kts | 121° |
| 2026-05-06 00:05 | 43.82698 | 22.11840 | 39018 ft | 517 kts | 121° |
| 2026-05-06 00:06 | 43.78822 | 22.20218 | 39022 ft | 517 kts | 121° |
| 2026-05-06 00:06 | 43.74939 | 22.28591 | 39018 ft | 518 kts | 121° |
| 2026-05-06 00:07 | 43.71085 | 22.36992 | 39022 ft | 517 kts | 117° |
| 2026-05-06 00:07 | 43.68534 | 22.46188 | 39025 ft | 510 kts | 97° |
| 2026-05-06 00:08 | 43.67553 | 22.55890 | 39012 ft | 511 kts | 92° |
| 2026-05-06 00:08 | 43.66813 | 22.65611 | 39004 ft | 513 kts | 92° |
| 2026-05-06 00:09 | 43.66063 | 22.75417 | 39006 ft | 512 kts | 92° |
| 2026-05-06 00:09 | 43.65273 | 22.85205 | 39001 ft | 512 kts | 92° |
| 2026-05-06 00:10 | 43.64462 | 22.94969 | 38990 ft | 511 kts | 92° |
| 2026-05-06 00:10 | 43.63647 | 23.04665 | 38986 ft | 510 kts | 92° |
| 2026-05-06 00:11 | 43.62817 | 23.14448 | 38979 ft | 510 kts | 92° |
| 2026-05-06 00:11 | 43.61988 | 23.24138 | 38966 ft | 510 kts | 92° |
| 2026-05-06 00:12 | 43.61148 | 23.33841 | 38982 ft | 509 kts | 92° |
| 2026-05-06 00:12 | 43.60301 | 23.43541 | 38977 ft | 509 kts | 93° |
| 2026-05-06 00:13 | 43.59446 | 23.53234 | 38964 ft | 509 kts | 93° |
| 2026-05-06 00:13 | 43.58585 | 23.62900 | 38986 ft | 508 kts | 93° |
| 2026-05-06 00:14 | 43.57716 | 23.72568 | 38972 ft | 507 kts | 93° |
| 2026-05-06 00:14 | 43.56842 | 23.82189 | 38975 ft | 507 kts | 93° |
| 2026-05-06 00:15 | 43.55957 | 23.91841 | 38987 ft | 507 kts | 93° |
| 2026-05-06 00:15 | 43.55068 | 24.01449 | 38980 ft | 506 kts | 93° |
| 2026-05-06 00:16 | 43.54169 | 24.11077 | 38982 ft | 505 kts | 93° |
| 2026-05-06 00:16 | 43.53256 | 24.20750 | 38981 ft | 505 kts | 93° |
| 2026-05-06 00:17 | 43.52350 | 24.30279 | 38984 ft | 504 kts | 94° |
| 2026-05-06 00:17 | 43.51431 | 24.39843 | 38985 ft | 504 kts | 94° |
| 2026-05-06 00:18 | 43.50503 | 24.49418 | 38985 ft | 504 kts | 94° |
| 2026-05-06 00:18 | 43.49574 | 24.58926 | 38985 ft | 504 kts | 94° |
| 2026-05-06 00:19 | 43.48631 | 24.68498 | 38995 ft | 504 kts | 94° |
| 2026-05-06 00:19 | 43.47677 | 24.78083 | 38986 ft | 504 kts | 94° |
| 2026-05-06 00:20 | 43.46719 | 24.87633 | 38989 ft | 504 kts | 94° |
| 2026-05-06 00:20 | 43.45751 | 24.97200 | 38990 ft | 505 kts | 94° |
| 2026-05-06 00:21 | 43.44780 | 25.06714 | 38995 ft | 504 kts | 94° |
| 2026-05-06 00:21 | 43.43797 | 25.16263 | 38996 ft | 504 kts | 94° |
| 2026-05-06 00:22 | 43.42810 | 25.25776 | 38999 ft | 504 kts | 94° |
| 2026-05-06 00:22 | 43.41812 | 25.35312 | 38997 ft | 504 kts | 94° |
| 2026-05-06 00:23 | 43.40805 | 25.44858 | 39007 ft | 503 kts | 94° |
| 2026-05-06 00:23 | 43.39794 | 25.54357 | 39015 ft | 502 kts | 95° |
| 2026-05-06 00:24 | 43.38772 | 25.63886 | 39013 ft | 502 kts | 95° |
| 2026-05-06 00:24 | 43.37751 | 25.73329 | 39016 ft | 502 kts | 95° |
| 2026-05-06 00:25 | 43.36718 | 25.82813 | 39024 ft | 502 kts | 95° |
| 2026-05-06 00:25 | 43.35672 | 25.92334 | 39022 ft | 502 kts | 95° |
| 2026-05-06 00:26 | 43.34623 | 26.01807 | 39022 ft | 502 kts | 95° |
| 2026-05-06 00:26 | 43.33567 | 26.11272 | 39020 ft | 502 kts | 95° |
| 2026-05-06 00:27 | 43.32504 | 26.20735 | 39028 ft | 501 kts | 95° |
| 2026-05-06 00:27 | 43.31431 | 26.30200 | 39043 ft | 501 kts | 95° |
| 2026-05-06 00:28 | 43.30359 | 26.39585 | 39037 ft | 501 kts | 95° |
| 2026-05-06 00:28 | 43.29268 | 26.49073 | 39056 ft | 501 kts | 95° |